Green Lofoten — P3MG8 — position and weather

sailwx.info

Track history (hours):
 
Tides and Currents Weather Stations Pressure Air Temp Water Temp Dewpoint Dewpoint Depression Visibility Wind Speed Wind Dir Waves Ship Positions

Green Lofoten

Last reported at 2016-Jul-29 01:31 UTC. Time now 2016-Jul-29 02:11 UTC.
Position N 61°59' W 006°42'.

Length 98 m; draft 4 m.

Type: Ship. MMSI: 212857000.

Date/timePositionNaut miles runAvg speedWind from/ knotsBaromVisibWave heightAir tempDewpointWater temp
2016-Jul-29 01:31N 61°59' W 006°42'0 0.0
2016-Jul-29 00:31N 61°59' W 006°42'0 0.0
2016-Jul-28 23:31N 61°59' W 006°42'0 0.0
2016-Jul-28 22:31N 61°59' W 006°42'0 0.0
2016-Jul-28 21:31N 61°59' W 006°42'0 0.0
2016-Jul-28 20:31N 61°59' W 006°42'0 0.0
2016-Jul-28 19:31N 61°59' W 006°42'0 0.0
2016-Jul-28 18:31N 61°59' W 006°42'0 0.0
2016-Jul-28 17:31N 61°59' W 006°42'1 1.0
2016-Jul-28 16:33N 61°58' W 006°41'10 9.6
2016-Jul-28 15:33N 61°49' W 006°35'1414.4
2016-Jul-28 14:33N 61°35' W 006°33'1414.2
2016-Jul-28 13:34N 61°21' W 006°31'1414.2
2016-Jul-28 12:33N 61°07' W 006°37'1413.9
2016-Jul-28 11:33N 60°53' W 006°44'58913.6
2016-Jul-26 16:12N 51°21' W 010°53'914.2
2016-Jul-26 15:33N 51°12' W 010°54'1414.1
2016-Jul-26 14:34N 50°58' W 010°54'1414.0
2016-Jul-26 13:33N 50°44' W 010°55'1414.3
2016-Jul-26 12:32N 50°29' W 010°55'50213.6
2016-Jul-24 23:33N 42°07' W 010°21'88 9.8
2016-Jul-24 14:33N 40°40' W 010°04'1711.9
2016-Jul-24 13:08N 40°23' W 010°03'711.7
2016-Jul-24 12:33N 40°16' W 010°02'5711.2
2016-Jul-24 07:30N 39°20' W 009°56'1111.7
2016-Jul-24 06:31N 39°09' W 009°55'1111.8
2016-Jul-24 05:33N 38°57' W 009°53'1111.2
2016-Jul-24 04:33N 38°46' W 009°52'1111.1
2016-Jul-24 03:33N 38°35' W 009°50'1111.3
2016-Jul-24 02:33N 38°24' W 009°47'1110.8
2016-Jul-24 01:33N 38°14' W 009°43'1010.4
2016-Jul-24 00:33N 38°04' W 009°40'1110.4
2016-Jul-23 23:33N 37°53' W 009°37'10 9.8
2016-Jul-23 22:33N 37°44' W 009°34'10 9.7
2016-Jul-23 21:33N 37°34' W 009°31'10 9.5
2016-Jul-23 20:33N 37°25' W 009°28'1110.8
2016-Jul-23 19:33N 37°15' W 009°25'1211.8
2016-Jul-23 18:33N 37°03' W 009°22'1211.8
2016-Jul-23 17:33N 36°52' W 009°17'1111.5
2016-Jul-23 16:33N 36°44' W 009°07'1312.7
2016-Jul-23 15:33N 36°40' W 008°52'1412.5
2016-Jul-23 14:28N 36°36' W 008°36'1212.8
2016-Jul-23 13:33N 36°32' W 008°22'1313.3
2016-Jul-23 12:33N 36°28' W 008°06'12413.8
2016-Jul-23 03:34N 35°58' W 005°37'1312.5
2016-Jul-23 02:33N 36°01' W 005°22'1110.9
2016-Jul-23 01:33N 36°03' W 005°09'10513.1
2016-Jul-22 17:33N 36°19' W 003°01'1312.7
2016-Jul-22 16:31N 36°21' W 002°45'2913.4
2016-Jul-22 14:23N 36°26' W 002°10'4014.1
2016-Jul-22 11:33N 36°31' W 001°21'4213.8
2016-Jul-22 08:32N 36°38' W 000°29'5613.9
2016-Jul-22 04:32N 36°46' E 000°39'1913.9
2016-Jul-22 03:07N 36°49' E 001°03'1013.3
2016-Jul-22 02:24N 36°50' E 001°15'1213.8
2016-Jul-22 01:31N 36°52' E 001°30'1313.7
2016-Jul-22 00:33N 36°53' E 001°47'1714.0
2016-Jul-21 23:21N 36°56' E 002°07'1114.2
2016-Jul-21 22:33N 36°58' E 002°21'1414.3
2016-Jul-21 21:33N 37°01' E 002°39'1414.1
2016-Jul-21 20:33N 37°03' E 002°56'1614.6
2016-Jul-21 19:28N 37°05' E 003°16'1314.5
2016-Jul-21 18:33N 37°07' E 003°32'1514.8
2016-Jul-21 17:33N 37°10' E 003°51'1515.1
2016-Jul-21 16:33N 37°12' E 004°09'1515.0
2016-Jul-21 15:33N 37°13' E 004°28'1414.5
2016-Jul-21 14:33N 37°15' E 004°46'1414.4
2016-Jul-21 13:33N 37°17' E 005°04'1614.2
2016-Jul-21 12:26N 37°18' E 005°24'1614.4
2016-Jul-21 11:18N 37°20' E 005°44'1114.5
2016-Jul-21 10:32N 37°21' E 005°58'12214.7
2016-Jul-21 02:12N 37°34' E 008°31'3713.9
2016-Jul-20 23:33N 37°37' E 009°18'1413.7
2016-Jul-20 22:32N 37°38' E 009°35'1413.8
2016-Jul-20 21:33N 37°38' E 009°53'1413.9
2016-Jul-20 20:33N 37°38' E 010°10'1414.1
2016-Jul-20 19:33N 37°36' E 010°28'6214.5
2016-Jul-20 15:17N 37°15' E 011°41'1115.0
2016-Jul-20 14:33N 37°12' E 011°54'1514.6
2016-Jul-20 13:34N 37°06' E 012°11'1414.2
2016-Jul-20 12:33N 37°01' E 012°28'1313.5
2016-Jul-20 11:33N 36°56' E 012°43'5513.6
2016-Jul-20 07:33N 36°35' E 013°46'1313.3
2016-Jul-20 06:34N 36°32' E 014°02'1313.4
2016-Jul-20 05:33N 36°32' E 014°19'  
Track history (hours):
 
Tides and Currents Weather Stations Pressure Air Temp Water Temp Dewpoint Dewpoint Depression Visibility Wind Speed Wind Dir Waves Ship Positions

Green Lofoten

Last reported at 2016-Jul-29 01:31 UTC. Time now 2016-Jul-29 02:11 UTC.
Position N 61°59' W 006°42'.

Length 98 m; draft 4 m.

Type: Ship. MMSI: 212857000.

Date/timePositionNaut miles runAvg speedWind from/ knotsBaromVisibWave heightAir tempDewpointWater temp
2016-Jul-29 01:31N 61°59' W 006°42'0 0.0
2016-Jul-29 00:31N 61°59' W 006°42'0 0.0
2016-Jul-28 23:31N 61°59' W 006°42'0 0.0
2016-Jul-28 22:31N 61°59' W 006°42'0 0.0
2016-Jul-28 21:31N 61°59' W 006°42'0 0.0
2016-Jul-28 20:31N 61°59' W 006°42'0 0.0
2016-Jul-28 19:31N 61°59' W 006°42'0 0.0
2016-Jul-28 18:31N 61°59' W 006°42'0 0.0
2016-Jul-28 17:31N 61°59' W 006°42'1 1.0
2016-Jul-28 16:33N 61°58' W 006°41'10 9.6
2016-Jul-28 15:33N 61°49' W 006°35'1414.4
2016-Jul-28 14:33N 61°35' W 006°33'1414.2
2016-Jul-28 13:34N 61°21' W 006°31'1414.2
2016-Jul-28 12:33N 61°07' W 006°37'1413.9
2016-Jul-28 11:33N 60°53' W 006°44'58913.6
2016-Jul-26 16:12N 51°21' W 010°53'914.2
2016-Jul-26 15:33N 51°12' W 010°54'1414.1
2016-Jul-26 14:34N 50°58' W 010°54'1414.0
2016-Jul-26 13:33N 50°44' W 010°55'1414.3
2016-Jul-26 12:32N 50°29' W 010°55'50213.6
2016-Jul-24 23:33N 42°07' W 010°21'88 9.8
2016-Jul-24 14:33N 40°40' W 010°04'1711.9
2016-Jul-24 13:08N 40°23' W 010°03'711.7
2016-Jul-24 12:33N 40°16' W 010°02'5711.2
2016-Jul-24 07:30N 39°20' W 009°56'1111.7
2016-Jul-24 06:31N 39°09' W 009°55'1111.8
2016-Jul-24 05:33N 38°57' W 009°53'1111.2
2016-Jul-24 04:33N 38°46' W 009°52'1111.1
2016-Jul-24 03:33N 38°35' W 009°50'1111.3
2016-Jul-24 02:33N 38°24' W 009°47'1110.8
2016-Jul-24 01:33N 38°14' W 009°43'1010.4
2016-Jul-24 00:33N 38°04' W 009°40'1110.4
2016-Jul-23 23:33N 37°53' W 009°37'10 9.8
2016-Jul-23 22:33N 37°44' W 009°34'10 9.7
2016-Jul-23 21:33N 37°34' W 009°31'10 9.5
2016-Jul-23 20:33N 37°25' W 009°28'1110.8
2016-Jul-23 19:33N 37°15' W 009°25'1211.8
2016-Jul-23 18:33N 37°03' W 009°22'1211.8
2016-Jul-23 17:33N 36°52' W 009°17'1111.5
2016-Jul-23 16:33N 36°44' W 009°07'1312.7
2016-Jul-23 15:33N 36°40' W 008°52'1412.5
2016-Jul-23 14:28N 36°36' W 008°36'1212.8
2016-Jul-23 13:33N 36°32' W 008°22'1313.3
2016-Jul-23 12:33N 36°28' W 008°06'12413.8
2016-Jul-23 03:34N 35°58' W 005°37'1312.5
2016-Jul-23 02:33N 36°01' W 005°22'1110.9
2016-Jul-23 01:33N 36°03' W 005°09'10513.1
2016-Jul-22 17:33N 36°19' W 003°01'1312.7
2016-Jul-22 16:31N 36°21' W 002°45'2913.4
2016-Jul-22 14:23N 36°26' W 002°10'4014.1
2016-Jul-22 11:33N 36°31' W 001°21'4213.8
2016-Jul-22 08:32N 36°38' W 000°29'5613.9
2016-Jul-22 04:32N 36°46' E 000°39'1913.9
2016-Jul-22 03:07N 36°49' E 001°03'1013.3
2016-Jul-22 02:24N 36°50' E 001°15'1213.8
2016-Jul-22 01:31N 36°52' E 001°30'1313.7
2016-Jul-22 00:33N 36°53' E 001°47'1714.0
2016-Jul-21 23:21N 36°56' E 002°07'1114.2
2016-Jul-21 22:33N 36°58' E 002°21'1414.3
2016-Jul-21 21:33N 37°01' E 002°39'1414.1
2016-Jul-21 20:33N 37°03' E 002°56'1614.6
2016-Jul-21 19:28N 37°05' E 003°16'1314.5
2016-Jul-21 18:33N 37°07' E 003°32'1514.8
2016-Jul-21 17:33N 37°10' E 003°51'1515.1
2016-Jul-21 16:33N 37°12' E 004°09'1515.0
2016-Jul-21 15:33N 37°13' E 004°28'1414.5
2016-Jul-21 14:33N 37°15' E 004°46'1414.4
2016-Jul-21 13:33N 37°17' E 005°04'1614.2
2016-Jul-21 12:26N 37°18' E 005°24'1614.4
2016-Jul-21 11:18N 37°20' E 005°44'1114.5
2016-Jul-21 10:32N 37°21' E 005°58'12214.7
2016-Jul-21 02:12N 37°34' E 008°31'3713.9
2016-Jul-20 23:33N 37°37' E 009°18'1413.7
2016-Jul-20 22:32N 37°38' E 009°35'1413.8
2016-Jul-20 21:33N 37°38' E 009°53'1413.9
2016-Jul-20 20:33N 37°38' E 010°10'1414.1
2016-Jul-20 19:33N 37°36' E 010°28'6214.5
2016-Jul-20 15:17N 37°15' E 011°41'1115.0
2016-Jul-20 14:33N 37°12' E 011°54'1514.6
2016-Jul-20 13:34N 37°06' E 012°11'1414.2
2016-Jul-20 12:33N 37°01' E 012°28'1313.5
2016-Jul-20 11:33N 36°56' E 012°43'5513.6
2016-Jul-20 07:33N 36°35' E 013°46'1313.3
2016-Jul-20 06:34N 36°32' E 014°02'1313.4
2016-Jul-20 05:33N 36°32' E 014°19'  

Dump ship's entire track history